CYZVCYBC

Guest
Details From CYZV - SEPT ILES
To CYBC - BAIE COMEAU
Flight Number -
Tags generated
Created
Modified
Stats Distance 100 nm / 185 km
Max Altitude 0 ft / 0 m
Waypoints 3
Social Downloads 1
Likes 0
Share VATSIM

Download

Looking for another format? Having issues loading an existing format? Contact us
Advertisement - Login to hide

Notes

Basic altitude profile: - Ascent Rate: 2500ft/min - Ascent Speed: 250kts - Cruise Altitude: 35000ft - Cruise Speed: 420kts - Descent Rate: 1500ft/min - Descent Speed: 250kts

Route

CYZV UZV CYBC

ID Type Via Altitude Latitude Longitude Leg Dist Tot Dist Heading (true) Name
O CYZV APT - 0 ft / 0 m 50.22389˚ -66.26750˚ - 0 nm - SEPT ILES
UZV VOR - 0 ft / 0 m 50.22389˚ -66.26611˚ 0 nm 0 nm 90° / 90° -
O CYBC APT - 0 ft / 0 m 49.13227˚ -68.20721˚ 99 nm 99 nm 230° / 228° BAIE COMEAU

Altitude Profile

Advertisement - Login to hide

CYZV

Details ICAO CYZV (YZV)
Name SEPT ILES
Region Canada
Timezone America/Montreal (UTC-5.0)
Stats Elevation 180 ft / 55 m (AMSL)
Location 50.223890° -66.267501°
Runways 3
Magnetic Variation 18.810° W

METAR

CYZV 110400Z 26006KT 15SM FEW020 SCT090 M11/M15 A2960 RMK SC2AC1 SLP029

Decode

TAF

TAF TAF AMD CYZV 110046Z 1100/1124 29005KT P6SM BKN030 TEMPO 1100/1102 3SM -SHSN FM110400 31010KT P6SM SCT050 RMK NXT FCST BY 110600Z

Decode

Departure Runways

ID Width Length Bearing (true) Bearing (mag) Surface Threshold Offset Overrun Length
05 200 ft / 61 m 5,936 ft / 1,809 m 29.45° 48.26° Asphalt 0 ft / 0 m 0 ft / 0 m
09 150 ft / 46 m 6,647 ft / 2,026 m 69.47° 88.28° Asphalt 0 ft / 0 m 0 ft / 0 m
13 200 ft / 61 m 6,055 ft / 1,846 m 109.55° 128.36° Asphalt 0 ft / 0 m 0 ft / 0 m
23 200 ft / 61 m 5,936 ft / 1,809 m 209.46° 228.27° Asphalt 0 ft / 0 m 0 ft / 0 m
27 150 ft / 46 m 6,647 ft / 2,026 m 249.49° 268.30° Asphalt 0 ft / 0 m 0 ft / 0 m
31 200 ft / 61 m 6,055 ft / 1,846 m 289.57° 308.38° Asphalt 0 ft / 0 m 0 ft / 0 m

CYBC

Details ICAO CYBC (YBC)
Name BAIE COMEAU
Region Canada
Timezone America/Montreal (UTC-5.0)
Stats Elevation 71 ft / 22 m (AMSL)
Location 49.132270° -68.207207°
Runways 1
Magnetic Variation 17.850° W

METAR

CYBC 110400Z AUTO 27014G19KT 9SM CLR M12/M19 A2974 RMK SLP075

Decode

TAF

TAF CYBC 110138Z 1102/1114 30010G20KT P6SM OVC050 FM110400 30010KT P6SM FEW050 RMK FCST BASED ON AUTO OBS. NXT FCST BY 110800Z

Decode

Destination Runways

ID Width Length Bearing (true) Bearing (mag) Surface Threshold Offset Overrun Length
10 150 ft / 46 m 5,984 ft / 1,824 m 80.50° 98.35° Asphalt 0 ft / 0 m 0 ft / 0 m
28 150 ft / 46 m 5,984 ft / 1,824 m 260.52° 278.37° Asphalt 0 ft / 0 m 0 ft / 0 m

Approach Navaids

Runway Type Ident Frequency Range Bearing (true) Bearing (mag) Slope Elevation
10 Localiser IBC 110.30 MHz 18 nm / 33 km 79.38° 97.23° - 66 ft / 20 m (AMSL)
10 Glidescope IBC 110.30 MHz 18 nm / 33 km 100.00° 117.85° 2.50° 69 ft / 21 m (AMSL)

Popular Alternatives